sensor_id;sensor_type;location;lat;lon;timestamp;pressure;altitude;pressure_sealevel;temperature
76583;BMP280;65462;52.148;7.940;2023-09-07T00:01:32;101288.34;;;21.70
76583;BMP280;65462;52.148;7.940;2023-09-07T00:03:57;101289.47;;;21.69
76583;BMP280;65462;52.148;7.940;2023-09-07T00:06:22;101284.84;;;21.66
76583;BMP280;65462;52.148;7.940;2023-09-07T00:08:47;101283.69;;;21.64
76583;BMP280;65462;52.148;7.940;2023-09-07T00:11:12;101284.09;;;21.59
76583;BMP280;65462;52.148;7.940;2023-09-07T00:13:37;101271.38;;;21.56
76583;BMP280;65462;52.148;7.940;2023-09-07T00:16:03;101274.47;;;21.54
76583;BMP280;65462;52.148;7.940;2023-09-07T00:18:29;101279.44;;;21.52
76583;BMP280;65462;52.148;7.940;2023-09-07T00:20:54;101281.75;;;21.50
76583;BMP280;65462;52.148;7.940;2023-09-07T00:23:19;101274.06;;;21.48
76583;BMP280;65462;52.148;7.940;2023-09-07T00:25:45;101281.34;;;21.44
76583;BMP280;65462;52.148;7.940;2023-09-07T00:28:10;101280.97;;;21.42
76583;BMP280;65462;52.148;7.940;2023-09-07T00:30:35;101281.31;;;21.37
76583;BMP280;65462;52.148;7.940;2023-09-07T00:33:00;101290.56;;;21.36
76583;BMP280;65462;52.148;7.940;2023-09-07T00:35:25;101280.53;;;21.33
76583;BMP280;65462;52.148;7.940;2023-09-07T00:37:51;101282.88;;;21.31
76583;BMP280;65462;52.148;7.940;2023-09-07T00:40:16;101280.91;;;21.28
76583;BMP280;65462;52.148;7.940;2023-09-07T00:42:41;101282.06;;;21.27
76583;BMP280;65462;52.148;7.940;2023-09-07T00:45:07;101282.81;;;21.24
76583;BMP280;65462;52.148;7.940;2023-09-07T00:47:32;101275.50;;;21.21
76583;BMP280;65462;52.148;7.940;2023-09-07T00:49:58;101273.59;;;21.18
76583;BMP280;65462;52.148;7.940;2023-09-07T00:52:24;101278.19;;;21.18
76583;BMP280;65462;52.148;7.940;2023-09-07T00:54:49;101268.97;;;21.15
76583;BMP280;65462;52.148;7.940;2023-09-07T00:57:14;101264.72;;;21.14
76583;BMP280;65462;52.148;7.940;2023-09-07T00:59:39;101275.09;;;21.12
76583;BMP280;65462;52.148;7.940;2023-09-07T01:02:05;101270.13;;;21.07
76583;BMP280;65462;52.148;7.940;2023-09-07T01:04:30;101272.38;;;21.05
76583;BMP280;65462;52.148;7.940;2023-09-07T01:06:57;101275.06;;;21.05
76583;BMP280;65462;52.148;7.940;2023-09-07T01:11:59;101268.88;;;21.01
76583;BMP280;65462;52.148;7.940;2023-09-07T01:14:24;101268.13;;;21.01
76583;BMP280;65462;52.148;7.940;2023-09-07T01:16:50;101267.34;;;20.97
76583;BMP280;65462;52.148;7.940;2023-09-07T01:19:21;101267.72;;;20.95
76583;BMP280;65462;52.148;7.940;2023-09-07T01:21:47;101270.03;;;20.93
76583;BMP280;65462;52.148;7.940;2023-09-07T01:24:12;101264.28;;;20.91
76583;BMP280;65462;52.148;7.940;2023-09-07T01:26:38;101263.47;;;20.87
76583;BMP280;65462;52.148;7.940;2023-09-07T01:29:04;101257.31;;;20.87
76583;BMP280;65462;52.148;7.940;2023-09-07T01:31:30;101258.84;;;20.84
76583;BMP280;65462;52.148;7.940;2023-09-07T01:33:55;101264.59;;;20.83
76583;BMP280;65462;52.148;7.940;2023-09-07T01:36:20;101249.63;;;20.78
76583;BMP280;65462;52.148;7.940;2023-09-07T01:38:45;101251.53;;;20.78
76583;BMP280;65462;52.148;7.940;2023-09-07T01:41:10;101251.53;;;20.78
76583;BMP280;65462;52.148;7.940;2023-09-07T01:43:37;101241.88;;;20.73
76583;BMP280;65462;52.148;7.940;2023-09-07T01:46:02;101252.25;;;20.71
76583;BMP280;65462;52.148;7.940;2023-09-07T01:48:27;101250.31;;;20.68
76583;BMP280;65462;52.148;7.940;2023-09-07T01:50:53;101248.75;;;20.67
76583;BMP280;65462;52.148;7.940;2023-09-07T01:53:19;101242.59;;;20.63
76583;BMP280;65462;52.148;7.940;2023-09-07T01:55:44;101246.81;;;20.64
76583;BMP280;65462;52.148;7.940;2023-09-07T01:58:09;101243.34;;;20.64
76583;BMP280;65462;52.148;7.940;2023-09-07T02:00:37;101240.31;;;20.62
76583;BMP280;65462;52.148;7.940;2023-09-07T02:03:04;101241.81;;;20.59
76583;BMP280;65462;52.148;7.940;2023-09-07T02:05:29;101250.97;;;20.55
76583;BMP280;65462;52.148;7.940;2023-09-07T02:07:54;101244.47;;;20.52
76583;BMP280;65462;52.148;7.940;2023-09-07T02:10:19;101244.06;;;20.50
76583;BMP280;65462;52.148;7.940;2023-09-07T02:12:45;101249.78;;;20.45
76583;BMP280;65462;52.148;7.940;2023-09-07T02:15:10;101247.88;;;20.42
76583;BMP280;65462;52.148;7.940;2023-09-07T02:17:36;101235.56;;;20.41
76583;BMP280;65462;52.148;7.940;2023-09-07T02:20:01;101240.53;;;20.39
76583;BMP280;65462;52.148;7.940;2023-09-07T02:22:26;101237.44;;;20.37
76583;BMP280;65462;52.148;7.940;2023-09-07T02:24:51;101242.41;;;20.35
76583;BMP280;65462;52.148;7.940;2023-09-07T02:27:16;101249.34;;;20.36
76583;BMP280;65462;52.148;7.940;2023-09-07T02:29:41;101246.97;;;20.31
76583;BMP280;65462;52.148;7.940;2023-09-07T02:32:07;101257.72;;;20.31
76583;BMP280;65462;52.148;7.940;2023-09-07T02:34:32;101242.38;;;20.28
76583;BMP280;65462;52.148;7.940;2023-09-07T02:37:01;101239.28;;;20.26
76583;BMP280;65462;52.148;7.940;2023-09-07T02:39:26;101233.91;;;20.26
76583;BMP280;65462;52.148;7.940;2023-09-07T02:41:52;101243.13;;;20.25
76583;BMP280;65462;52.148;7.940;2023-09-07T02:44:17;101236.56;;;20.22
76583;BMP280;65462;52.148;7.940;2023-09-07T02:46:42;101236.22;;;20.20
76583;BMP280;65462;52.148;7.940;2023-09-07T02:49:07;101241.91;;;20.15
76583;BMP280;65462;52.148;7.940;2023-09-07T02:51:33;101228.06;;;20.13
76583;BMP280;65462;52.148;7.940;2023-09-07T02:53:58;101226.16;;;20.14
76583;BMP280;65462;52.148;7.940;2023-09-07T02:56:24;101227.28;;;20.13
76583;BMP280;65462;52.148;7.940;2023-09-07T02:58:50;101226.91;;;20.11
76583;BMP280;65462;52.148;7.940;2023-09-07T03:01:15;101230.34;;;20.11
76583;BMP280;65462;52.148;7.940;2023-09-07T03:03:44;101226.13;;;20.07
76583;BMP280;65462;52.148;7.940;2023-09-07T03:06:12;101222.31;;;20.08
76583;BMP280;65462;52.148;7.940;2023-09-07T03:08:39;101220.38;;;20.08
76583;BMP280;65462;52.148;7.940;2023-09-07T03:11:04;101228.81;;;20.07
76583;BMP280;65462;52.148;7.940;2023-09-07T03:13:30;101222.31;;;20.08
76583;BMP280;65462;52.148;7.940;2023-09-07T03:15:55;101228.81;;;20.07
76583;BMP280;65462;52.148;7.940;2023-09-07T03:18:21;101223.00;;;20.05
76583;BMP280;65462;52.148;7.940;2023-09-07T03:20:46;101221.50;;;20.04
76583;BMP280;65462;52.148;7.940;2023-09-07T03:23:12;101227.22;;;20.02
76583;BMP280;65462;52.148;7.940;2023-09-07T03:25:37;101218.38;;;20.02
76583;BMP280;65462;52.148;7.940;2023-09-07T03:28:02;101229.50;;;20.00
76583;BMP280;65462;52.148;7.940;2023-09-07T03:30:28;101228.75;;;20.00
76583;BMP280;65462;52.148;7.940;2023-09-07T03:32:53;101232.97;;;20.01
76583;BMP280;65462;52.148;7.940;2023-09-07T03:35:19;101228.75;;;20.00
76583;BMP280;65462;52.148;7.940;2023-09-07T03:37:44;101226.78;;;19.97
76583;BMP280;65462;52.148;7.940;2023-09-07T03:40:09;101231.34;;;19.93
76583;BMP280;65462;52.148;7.940;2023-09-07T03:42:35;101230.19;;;19.90
76583;BMP280;65462;52.148;7.940;2023-09-07T03:45:00;101230.53;;;19.89
76583;BMP280;65462;52.148;7.940;2023-09-07T03:47:25;101231.69;;;19.88
76583;BMP280;65462;52.148;7.940;2023-09-07T03:49:54;101233.63;;;19.87
76583;BMP280;65462;52.148;7.940;2023-09-07T03:52:19;101238.22;;;19.87
76583;BMP280;65462;52.148;7.940;2023-09-07T03:54:46;101235.13;;;19.85
76583;BMP280;65462;52.148;7.940;2023-09-07T03:57:12;101242.78;;;19.83
76583;BMP280;65462;52.148;7.940;2023-09-07T03:59:37;101238.56;;;19.82
76583;BMP280;65462;52.148;7.940;2023-09-07T04:02:02;101228.16;;;19.80
76583;BMP280;65462;52.148;7.940;2023-09-07T04:04:28;101228.94;;;19.81
76583;BMP280;65462;52.148;7.940;2023-09-07T04:06:53;101229.69;;;19.78
76583;BMP280;65462;52.148;7.940;2023-09-07T04:09:18;101235.06;;;19.78
76583;BMP280;65462;52.148;7.940;2023-09-07T04:11:43;101229.69;;;19.78
76583;BMP280;65462;52.148;7.940;2023-09-07T04:14:08;101234.66;;;19.76
76583;BMP280;65462;52.148;7.940;2023-09-07T04:16:34;101234.25;;;19.74
76583;BMP280;65462;52.148;7.940;2023-09-07T04:18:59;101235.75;;;19.71
76583;BMP280;65462;52.148;7.940;2023-09-07T04:21:24;101236.53;;;19.72
76583;BMP280;65462;52.148;7.940;2023-09-07T04:23:49;101231.16;;;19.72
76583;BMP280;65462;52.148;7.940;2023-09-07T04:26:14;101233.44;;;19.70
76583;BMP280;65462;52.148;7.940;2023-09-07T04:28:40;101231.13;;;19.68
76583;BMP280;65462;52.148;7.940;2023-09-07T04:31:05;101239.53;;;19.67
76583;BMP280;65462;52.148;7.940;2023-09-07T04:33:31;101232.66;;;19.66
76583;BMP280;65462;52.148;7.940;2023-09-07T04:35:56;101229.53;;;19.64
76583;BMP280;65462;52.148;7.940;2023-09-07T04:38:21;101234.91;;;19.64
76583;BMP280;65462;52.148;7.940;2023-09-07T04:40:46;101235.66;;;19.61
76583;BMP280;65462;52.148;7.940;2023-09-07T04:43:11;101233.34;;;19.59
76583;BMP280;65462;52.148;7.940;2023-09-07T04:45:37;101240.63;;;19.59
76583;BMP280;65462;52.148;7.940;2023-09-07T04:48:10;101237.94;;;19.59
76583;BMP280;65462;52.148;7.940;2023-09-07T04:50:35;101244.41;;;19.58
76583;BMP280;65462;52.148;7.940;2023-09-07T04:53:00;101246.34;;;19.57
76583;BMP280;65462;52.148;7.940;2023-09-07T04:55:25;101255.56;;;19.56
76583;BMP280;65462;52.148;7.940;2023-09-07T04:57:51;101255.91;;;19.55
76583;BMP280;65462;52.148;7.940;2023-09-07T05:00:16;101249.38;;;19.52
76583;BMP280;65462;52.148;7.940;2023-09-07T05:02:41;101253.94;;;19.52
76583;BMP280;65462;52.148;7.940;2023-09-07T05:05:08;101256.22;;;19.50
76583;BMP280;65462;52.148;7.940;2023-09-07T05:07:33;101243.19;;;19.48
76583;BMP280;65462;52.148;7.940;2023-09-07T05:09:58;101247.78;;;19.48
76583;BMP280;65462;52.148;7.940;2023-09-07T05:12:24;101248.50;;;19.45
76583;BMP280;65462;52.148;7.940;2023-09-07T05:14:49;101247.75;;;19.44
76583;BMP280;65462;52.148;7.940;2023-09-07T05:17:14;101248.88;;;19.43
76583;BMP280;65462;52.148;7.940;2023-09-07T05:19:39;101247.69;;;19.40
76583;BMP280;65462;52.148;7.940;2023-09-07T05:22:04;101248.84;;;19.40
76583;BMP280;65462;52.148;7.940;2023-09-07T05:24:29;101249.97;;;19.38
76583;BMP280;65462;52.148;7.940;2023-09-07T05:26:55;101253.03;;;19.37
76583;BMP280;65462;52.148;7.940;2023-09-07T05:29:20;101249.94;;;19.35
76583;BMP280;65462;52.148;7.940;2023-09-07T05:31:46;101252.25;;;19.36
76583;BMP280;65462;52.148;7.940;2023-09-07T05:34:11;101256.06;;;19.35
76583;BMP280;65462;52.148;7.940;2023-09-07T05:36:37;101256.44;;;19.34
76583;BMP280;65462;52.148;7.940;2023-09-07T05:39:02;101256.78;;;19.32
76583;BMP280;65462;52.148;7.940;2023-09-07T05:41:28;101252.16;;;19.29
76583;BMP280;65462;52.148;7.940;2023-09-07T05:43:54;101250.22;;;19.26
76583;BMP280;65462;52.148;7.940;2023-09-07T05:46:19;101252.91;;;19.26
76583;BMP280;65462;52.148;7.940;2023-09-07T05:48:44;101255.59;;;19.26
76583;BMP280;65462;52.148;7.940;2023-09-07T05:51:09;101264.38;;;19.27
76583;BMP280;65462;52.148;7.940;2023-09-07T05:53:34;101257.50;;;19.26
76583;BMP280;65462;52.148;7.940;2023-09-07T05:55:59;101263.97;;;19.25
76583;BMP280;65462;52.148;7.940;2023-09-07T05:58:25;101264.75;;;19.25
76583;BMP280;65462;52.148;7.940;2023-09-07T06:00:50;101263.19;;;19.24
76583;BMP280;65462;52.148;7.940;2023-09-07T06:03:15;101271.28;;;19.28
76583;BMP280;65462;52.148;7.940;2023-09-07T06:05:40;101272.06;;;19.28
76583;BMP280;65462;52.148;7.940;2023-09-07T06:08:06;101272.84;;;19.29
76583;BMP280;65462;52.148;7.940;2023-09-07T06:10:31;101270.94;;;19.29
76583;BMP280;65462;52.148;7.940;2023-09-07T06:12:56;101274.41;;;19.30
76583;BMP280;65462;52.148;7.940;2023-09-07T06:15:22;101272.09;;;19.32
76583;BMP280;65462;52.148;7.940;2023-09-07T06:17:48;101273.28;;;19.34
76583;BMP280;65462;52.148;7.940;2023-09-07T06:20:13;101273.69;;;19.36
76583;BMP280;65462;52.148;7.940;2023-09-07T06:22:38;101279.47;;;19.38
76583;BMP280;65462;52.148;7.940;2023-09-07T06:25:03;101275.28;;;19.41
76583;BMP280;65462;52.148;7.940;2023-09-07T06:27:28;101274.94;;;19.43
76583;BMP280;65462;52.148;7.940;2023-09-07T06:29:54;101282.22;;;19.46
76583;BMP280;65462;52.148;7.940;2023-09-07T06:32:19;101281.47;;;19.49
76583;BMP280;65462;52.148;7.940;2023-09-07T06:34:44;101280.78;;;19.52
76583;BMP280;65462;52.148;7.940;2023-09-07T06:37:10;101283.13;;;19.57
76583;BMP280;65462;52.148;7.940;2023-09-07T06:39:36;101281.66;;;19.63
76583;BMP280;65462;52.148;7.940;2023-09-07T06:42:01;101284.00;;;19.68
76583;BMP280;65462;52.148;7.940;2023-09-07T06:44:26;101287.16;;;19.77
76583;BMP280;65462;52.148;7.940;2023-09-07T06:46:51;101281.09;;;19.83
76583;BMP280;65462;52.148;7.940;2023-09-07T06:49:16;101288.81;;;19.88
76583;BMP280;65462;52.148;7.940;2023-09-07T06:51:42;101286.22;;;19.95
76583;BMP280;65462;52.148;7.940;2023-09-07T06:54:07;101289.34;;;20.04
76583;BMP280;65462;52.148;7.940;2023-09-07T06:56:32;101285.59;;;20.12
76583;BMP280;65462;52.148;7.940;2023-09-07T06:58:59;101289.50;;;20.22
76583;BMP280;65462;52.148;7.940;2023-09-07T07:01:25;101293.78;;;20.30
76583;BMP280;65462;52.148;7.940;2023-09-07T07:03:50;101289.63;;;20.36
76583;BMP280;65462;52.148;7.940;2023-09-07T07:06:15;101288.16;;;20.42
76583;BMP280;65462;52.148;7.940;2023-09-07T07:08:40;101293.56;;;20.49
76583;BMP280;65462;52.148;7.940;2023-09-07T07:11:05;101292.06;;;20.55
76583;BMP280;65462;52.148;7.940;2023-09-07T07:13:31;101294.81;;;20.62
76583;BMP280;65462;52.148;7.940;2023-09-07T07:15:56;101292.53;;;20.68
76583;BMP280;65462;52.148;7.940;2023-09-07T07:18:21;101299.09;;;20.74
76583;BMP280;65462;52.148;7.940;2023-09-07T07:20:47;101294.88;;;20.80
76583;BMP280;65462;52.148;7.940;2023-09-07T07:23:13;101296.88;;;20.86
76583;BMP280;65462;52.148;7.940;2023-09-07T07:25:38;101295.00;;;20.94
76583;BMP280;65462;52.148;7.940;2023-09-07T07:28:04;101297.34;;;21.02
76583;BMP280;65462;52.148;7.940;2023-09-07T07:30:35;101285.44;;;21.03
76583;BMP280;65462;52.148;7.940;2023-09-07T07:33:01;101290.50;;;21.15
76583;BMP280;65462;52.148;7.940;2023-09-07T07:35:28;101291.66;;;21.21
76583;BMP280;65462;52.148;7.940;2023-09-07T07:37:54;101295.91;;;21.29
76583;BMP280;65462;52.148;7.940;2023-09-07T07:40:19;101297.47;;;21.37
76583;BMP280;65462;52.148;7.940;2023-09-07T07:42:44;101302.88;;;21.44
76583;BMP280;65462;52.148;7.940;2023-09-07T07:45:11;101308.28;;;21.52
76583;BMP280;65462;52.148;7.940;2023-09-07T07:47:37;101308.31;;;21.59
76583;BMP280;65462;52.148;7.940;2023-09-07T07:50:02;101310.25;;;21.65
76583;BMP280;65462;52.148;7.940;2023-09-07T07:52:28;101311.78;;;21.73
76583;BMP280;65462;52.148;7.940;2023-09-07T07:54:54;101305.63;;;21.80
76583;BMP280;65462;52.148;7.940;2023-09-07T07:57:19;101296.03;;;21.82
76583;BMP280;65462;52.148;7.940;2023-09-07T07:59:46;101310.28;;;21.97
76583;BMP280;65462;52.148;7.940;2023-09-07T08:02:11;101315.28;;;22.05
76583;BMP280;65462;52.148;7.940;2023-09-07T08:04:36;101313.38;;;22.16
76583;BMP280;65462;52.148;7.940;2023-09-07T08:07:01;101309.91;;;22.23
76583;BMP280;65462;52.148;7.940;2023-09-07T08:09:30;101320.66;;;22.30
76583;BMP280;65462;52.148;7.940;2023-09-07T08:11:56;101312.97;;;22.39
76583;BMP280;65462;52.148;7.940;2023-09-07T08:14:22;101316.03;;;22.48
76583;BMP280;65462;52.148;7.940;2023-09-07T08:16:47;101306.75;;;22.56
76583;BMP280;65462;52.148;7.940;2023-09-07T08:19:12;101309.09;;;22.65
76583;BMP280;65462;52.148;7.940;2023-09-07T08:21:37;101312.91;;;22.74
76583;BMP280;65462;52.148;7.940;2023-09-07T08:24:03;101309.78;;;22.83
76583;BMP280;65462;52.148;7.940;2023-09-07T08:26:28;101312.47;;;22.86
76583;BMP280;65462;52.148;7.940;2023-09-07T08:28:53;101311.69;;;22.96
76583;BMP280;65462;52.148;7.940;2023-09-07T08:31:18;101315.88;;;23.04
76583;BMP280;65462;52.148;7.940;2023-09-07T08:33:47;101307.75;;;23.11
76583;BMP280;65462;52.148;7.940;2023-09-07T08:36:15;101307.75;;;23.18
76583;BMP280;65462;52.148;7.940;2023-09-07T08:38:42;101305.00;;;23.25
76583;BMP280;65462;52.148;7.940;2023-09-07T08:41:07;101310.38;;;23.32
76583;BMP280;65462;52.148;7.940;2023-09-07T08:43:33;101307.59;;;23.39
76583;BMP280;65462;52.148;7.940;2023-09-07T08:46:19;101306.00;;;23.49
76583;BMP280;65462;52.148;7.940;2023-09-07T08:48:47;101309.06;;;23.58
76583;BMP280;65462;52.148;7.940;2023-09-07T08:51:12;101296.66;;;23.67
76583;BMP280;65462;52.148;7.940;2023-09-07T08:53:39;101302.34;;;23.76
76583;BMP280;65462;52.148;7.940;2023-09-07T08:56:05;101303.81;;;23.84
76583;BMP280;65462;52.148;7.940;2023-09-07T08:58:31;101298.38;;;23.92
76583;BMP280;65462;52.148;7.940;2023-09-07T09:00:57;101294.84;;;23.98
76583;BMP280;65462;52.148;7.940;2023-09-07T09:03:22;101290.16;;;24.06
76583;BMP280;65462;52.148;7.940;2023-09-07T09:05:47;101296.69;;;24.08
76583;BMP280;65462;52.148;7.940;2023-09-07T09:08:15;101304.31;;;24.17
76583;BMP280;65462;52.148;7.940;2023-09-07T09:10:45;101301.22;;;24.22
76583;BMP280;65462;52.148;7.940;2023-09-07T09:13:10;101300.38;;;24.28
76583;BMP280;65462;52.148;7.940;2023-09-07T09:15:36;101302.25;;;24.35
76583;BMP280;65462;52.148;7.940;2023-09-07T09:18:11;101301.78;;;24.40
76583;BMP280;65462;52.148;7.940;2023-09-07T09:20:37;101297.09;;;24.44
76583;BMP280;65462;52.148;7.940;2023-09-07T09:23:03;101303.97;;;24.52
76583;BMP280;65462;52.148;7.940;2023-09-07T09:25:30;101289.97;;;24.60
76583;BMP280;65462;52.148;7.940;2023-09-07T09:27:56;101299.19;;;24.66
76583;BMP280;65462;52.148;7.940;2023-09-07T09:30:21;101288.66;;;24.72
76583;BMP280;65462;52.148;7.940;2023-09-07T09:32:46;101287.03;;;24.78
76583;BMP280;65462;52.148;7.940;2023-09-07T09:35:13;101295.88;;;24.82
76583;BMP280;65462;52.148;7.940;2023-09-07T09:37:44;101284.97;;;24.89
76583;BMP280;65462;52.148;7.940;2023-09-07T09:40:22;101288.00;;;24.94
76583;BMP280;65462;52.148;7.940;2023-09-07T09:42:47;101290.59;;;25.01
76583;BMP280;65462;52.148;7.940;2023-09-07T09:45:14;101285.09;;;25.08
76583;BMP280;65462;52.148;7.940;2023-09-07T09:47:42;101281.91;;;25.17
76583;BMP280;65462;52.148;7.940;2023-09-07T09:50:08;101276.38;;;25.24
76583;BMP280;65462;52.148;7.940;2023-09-07T09:52:34;101278.59;;;25.29
76583;BMP280;65462;52.148;7.940;2023-09-07T09:55:00;101269.22;;;25.37
76583;BMP280;65462;52.148;7.940;2023-09-07T09:57:25;101278.75;;;25.45
76583;BMP280;65462;52.148;7.940;2023-09-07T09:59:53;101279.81;;;25.51
76583;BMP280;65462;52.148;7.940;2023-09-07T10:02:18;101275.50;;;25.57
76583;BMP280;65462;52.148;7.940;2023-09-07T10:04:44;101272.28;;;25.62
76583;BMP280;65462;52.148;7.940;2023-09-07T10:07:09;101271.41;;;25.69
76583;BMP280;65462;52.148;7.940;2023-09-07T10:09:35;101267.47;;;25.73
76583;BMP280;65462;52.148;7.940;2023-09-07T10:12:03;101271.66;;;25.78
76583;BMP280;65462;52.148;7.940;2023-09-07T10:14:41;101268.13;;;25.81
76583;BMP280;65462;52.148;7.940;2023-09-07T10:17:07;101270.00;;;25.84
76583;BMP280;65462;52.148;7.940;2023-09-07T10:19:34;101265.22;;;25.91
76583;BMP280;65462;52.148;7.940;2023-09-07T10:22:01;101267.84;;;25.95
76583;BMP280;65462;52.148;7.940;2023-09-07T10:24:29;101268.50;;;26.02
76583;BMP280;65462;52.148;7.940;2023-09-07T10:27:07;101264.91;;;26.09
76583;BMP280;65462;52.148;7.940;2023-09-07T10:29:46;101259.00;;;26.14
76583;BMP280;65462;52.148;7.940;2023-09-07T10:32:11;101263.53;;;26.20
76583;BMP280;65462;52.148;7.940;2023-09-07T10:34:39;101261.50;;;26.24
76583;BMP280;65462;52.148;7.940;2023-09-07T10:37:08;101257.13;;;26.30
76583;BMP280;65462;52.148;7.940;2023-09-07T10:39:36;101260.13;;;26.36
76583;BMP280;65462;52.148;7.940;2023-09-07T10:42:03;101257.66;;;26.41
76583;BMP280;65462;52.148;7.940;2023-09-07T10:44:28;101255.59;;;26.49
76583;BMP280;65462;52.148;7.940;2023-09-07T10:46:54;101250.06;;;26.52
76583;BMP280;65462;52.148;7.940;2023-09-07T10:49:19;101245.34;;;26.57
76583;BMP280;65462;52.148;7.940;2023-09-07T10:51:45;101239.44;;;26.62
76583;BMP280;65462;52.148;7.940;2023-09-07T10:54:17;101247.06;;;26.67
76583;BMP280;65462;52.148;7.940;2023-09-07T10:56:43;101245.47;;;26.69
76583;BMP280;65462;52.148;7.940;2023-09-07T10:59:08;101241.16;;;26.72
76583;BMP280;65462;52.148;7.940;2023-09-07T11:01:34;101237.59;;;26.75
76583;BMP280;65462;52.148;7.940;2023-09-07T11:03:59;101235.56;;;26.79
76583;BMP280;65462;52.148;7.940;2023-09-07T11:06:24;101236.25;;;26.83
76583;BMP280;65462;52.148;7.940;2023-09-07T11:08:49;101229.63;;;26.84
76583;BMP280;65462;52.148;7.940;2023-09-07T11:11:15;101230.31;;;26.88
76583;BMP280;65462;52.148;7.940;2023-09-07T11:13:40;101230.22;;;26.91
76583;BMP280;65462;52.148;7.940;2023-09-07T11:16:09;101229.38;;;26.94
76583;BMP280;65462;52.148;7.940;2023-09-07T11:18:34;101221.16;;;26.98
76583;BMP280;65462;52.148;7.940;2023-09-07T11:21:02;101226.09;;;27.03
76583;BMP280;65462;52.148;7.940;2023-09-07T11:23:29;101223.28;;;27.06
76583;BMP280;65462;52.148;7.940;2023-09-07T11:25:54;101218.94;;;27.09
76583;BMP280;65462;52.148;7.940;2023-09-07T11:28:19;101210.72;;;27.12
76583;BMP280;65462;52.148;7.940;2023-09-07T11:30:51;101207.50;;;27.17
76583;BMP280;65462;52.148;7.940;2023-09-07T11:33:16;101210.22;;;27.17
76583;BMP280;65462;52.148;7.940;2023-09-07T11:35:42;101202.31;;;27.23
76583;BMP280;65462;52.148;7.940;2023-09-07T11:38:07;101211.16;;;27.27
76583;BMP280;65462;52.148;7.940;2023-09-07T11:40:35;101209.38;;;27.20
76583;BMP280;65462;52.148;7.940;2023-09-07T11:43:00;101203.84;;;27.24
76583;BMP280;65462;52.148;7.940;2023-09-07T11:45:25;101199.81;;;27.28
76583;BMP280;65462;52.148;7.940;2023-09-07T11:47:51;101198.25;;;27.31
76583;BMP280;65462;52.148;7.940;2023-09-07T11:50:16;101199.25;;;27.37
76583;BMP280;65462;52.148;7.940;2023-09-07T11:52:42;101203.47;;;27.38
76583;BMP280;65462;52.148;7.940;2023-09-07T11:55:07;101201.91;;;27.40
76583;BMP280;65462;52.148;7.940;2023-09-07T11:57:33;101199.81;;;27.44
76583;BMP280;65462;52.148;7.940;2023-09-07T11:59:58;101193.50;;;27.47
76583;BMP280;65462;52.148;7.940;2023-09-07T12:02:23;101190.06;;;27.47
76583;BMP280;65462;52.148;7.940;2023-09-07T12:04:49;101193.13;;;27.49
76583;BMP280;65462;52.148;7.940;2023-09-07T12:07:14;101190.63;;;27.54
76583;BMP280;65462;52.148;7.940;2023-09-07T12:09:39;101183.56;;;27.57
76583;BMP280;65462;52.148;7.940;2023-09-07T12:12:04;101184.25;;;27.61
76583;BMP280;65462;52.148;7.940;2023-09-07T12:14:30;101189.16;;;27.66
76583;BMP280;65462;52.148;7.940;2023-09-07T12:16:56;101188.63;;;27.71
76583;BMP280;65462;52.148;7.940;2023-09-07T12:19:21;101175.69;;;27.75
76583;BMP280;65462;52.148;7.940;2023-09-07T12:21:46;101176.78;;;27.77
76583;BMP280;65462;52.148;7.940;2023-09-07T12:24:11;101173.88;;;27.84
76583;BMP280;65462;52.148;7.940;2023-09-07T12:26:37;101177.38;;;27.85
76583;BMP280;65462;52.148;7.940;2023-09-07T12:29:02;101173.22;;;27.93
76583;BMP280;65462;52.148;7.940;2023-09-07T12:31:27;101180.03;;;28.01
76583;BMP280;65462;52.148;7.940;2023-09-07T12:33:53;101176.66;;;28.09
76583;BMP280;65462;52.148;7.940;2023-09-07T12:36:18;101182.97;;;28.19
76583;BMP280;65462;52.148;7.940;2023-09-07T12:38:46;101176.56;;;28.26
76583;BMP280;65462;52.148;7.940;2023-09-07T12:41:11;101171.97;;;28.35
76583;BMP280;65462;52.148;7.940;2023-09-07T12:43:37;101170.91;;;28.45
76583;BMP280;65462;52.148;7.940;2023-09-07T12:46:05;101170.69;;;28.52
76583;BMP280;65462;52.148;7.940;2023-09-07T12:48:30;101161.53;;;28.59
76583;BMP280;65462;52.148;7.940;2023-09-07T12:50:55;101160.88;;;28.67
76583;BMP280;65462;52.148;7.940;2023-09-07T12:53:20;101164.03;;;28.78
76583;BMP280;65462;52.148;7.940;2023-09-07T12:55:49;101163.03;;;28.85
76583;BMP280;65462;52.148;7.940;2023-09-07T12:58:15;101160.94;;;28.89
76583;BMP280;65462;52.148;7.940;2023-09-07T13:00:40;101151.47;;;28.93
76583;BMP280;65462;52.148;7.940;2023-09-07T13:03:05;101150.34;;;29.03
76583;BMP280;65462;52.148;7.940;2023-09-07T13:05:30;101158.88;;;29.14
76583;BMP280;65462;52.148;7.940;2023-09-07T13:07:55;101151.25;;;29.22
76583;BMP280;65462;52.148;7.940;2023-09-07T13:10:22;101151.88;;;29.26
76583;BMP280;65462;52.148;7.940;2023-09-07T13:12:47;101144.16;;;29.24
76583;BMP280;65462;52.148;7.940;2023-09-07T13:15:12;101142.50;;;29.27
76583;BMP280;65462;52.148;7.940;2023-09-07T13:17:38;101140.31;;;29.34
76583;BMP280;65462;52.148;7.940;2023-09-07T13:20:03;101136.25;;;29.39
76583;BMP280;65462;52.148;7.940;2023-09-07T13:22:28;101125.97;;;29.43
76583;BMP280;65462;52.148;7.940;2023-09-07T13:24:53;101130.56;;;29.46
76583;BMP280;65462;52.148;7.940;2023-09-07T13:27:18;101131.16;;;29.50
76583;BMP280;65462;52.148;7.940;2023-09-07T13:29:44;101131.03;;;29.53
76583;BMP280;65462;52.148;7.940;2023-09-07T13:32:09;101128.19;;;29.57
76583;BMP280;65462;52.148;7.940;2023-09-07T13:34:34;101128.03;;;29.60
76583;BMP280;65462;52.148;7.940;2023-09-07T13:36:59;101122.91;;;29.62
76583;BMP280;65462;52.148;7.940;2023-09-07T13:39:24;101120.94;;;29.63
76583;BMP280;65462;52.148;7.940;2023-09-07T13:41:50;101117.72;;;29.55
76583;BMP280;65462;52.148;7.940;2023-09-07T13:44:15;101123.91;;;29.56
76583;BMP280;65462;52.148;7.940;2023-09-07T13:46:40;101130.25;;;29.53
76583;BMP280;65462;52.148;7.940;2023-09-07T13:49:06;101126.16;;;29.48
76583;BMP280;65462;52.148;7.940;2023-09-07T13:51:31;101124.34;;;29.45